Terminal Aerodrome Forecast
Issued by NWS Louisville, KY

Home | Current Version | Previous Version | Text Only | Print | Product List | Glossary On
Versions: 1 2 3 4 5 6 7 8 9 10 11 12 13 14 15 16 17 18 19 20 21
307
FTUS43 KLMK 290520
TAFSDF
TAF
KSDF 290520Z 2906/3012 02006KT P6SM BKN030
      TEMPO 2907/2910 5SM BR BKN025
     FM291200 05005KT 6SM BR BKN022
     FM291600 08008KT P6SM SCT025 BKN200
     FM300000 10006KT P6SM BKN200=

USA.gov is the U.S. government's official web portal to all federal, state and local government web resources and services.